Terminal Aerodrome Forecast
Issued by NWS Portland, OR

Home | Current Version | Previous Version | Text Only | Print | Product List | Glossary On
Versions: 1 2 3 4 5 6 7 8 9 10 11 12 13 14 15 16 17 18
000
FTUS46 KPQR 222330
TAFEUG
TAF
KEUG 222330Z 2300/2324 36007KT P6SM SCT025 BKN100
     FM230500 VRB03KT P6SM SCT090
     FM231300 19004KT 4SM BR OVC012
     FM231800 19004KT P6SM SCT015 BKN100
     FM232100 22005KT P6SM SCT100=

USA.gov is the U.S. government's official web portal to all federal, state and local government web resources and services.